createdAt,value
2023-05-04T00:00:23.480Z,69.0730
2023-05-04T00:01:25.813Z,69.3209
2023-05-04T00:02:28.286Z,69.3560
2023-05-04T00:03:30.700Z,69.0796
2023-05-04T00:04:32.893Z,69.3100
2023-05-04T00:05:35.226Z,69.1589
2023-05-04T00:06:37.563Z,69.4548
2023-05-04T00:07:39.934Z,69.5976
2023-05-04T00:08:42.241Z,69.7449
2023-05-04T00:09:44.586Z,69.6659
2023-05-04T00:10:46.882Z,69.8268
2023-05-04T00:11:49.253Z,70.0613
2023-05-04T00:12:51.579Z,69.8080
2023-05-04T00:13:53.901Z,69.8773
2023-05-04T00:14:56.292Z,70.1056
2023-05-04T00:15:58.621Z,70.2221
2023-05-04T00:17:00.949Z,70.0620
2023-05-04T00:18:03.263Z,69.9723
2023-05-04T00:19:05.637Z,70.1613
2023-05-04T00:20:07.975Z,70.2702
2023-05-04T00:21:10.438Z,70.1261
2023-05-04T00:22:12.652Z,70.1385
2023-05-04T00:23:14.989Z,70.2065
2023-05-04T00:24:17.355Z,69.8576
2023-05-04T00:25:19.635Z,69.7449
2023-05-04T00:26:22.012Z,69.7929
2023-05-04T00:27:24.311Z,70.0114
2023-05-04T00:28:26.659Z,70.1286
2023-05-04T00:29:29.021Z,70.2029
2023-05-04T00:30:31.338Z,70.2220
2023-05-04T00:31:33.768Z,70.1211
2023-05-04T00:32:36.071Z,70.1016
2023-05-04T00:33:38.394Z,70.0574
2023-05-04T00:34:40.898Z,70.3001
2023-05-04T00:35:43.047Z,70.1552
2023-05-04T00:36:45.394Z,70.3129
2023-05-04T00:37:47.722Z,70.3809
2023-05-04T00:38:50.083Z,70.5605
2023-05-04T00:39:52.430Z,70.3673
2023-05-04T00:40:54.804Z,70.3416
2023-05-04T00:41:57.081Z,70.2564
2023-05-04T00:42:59.427Z,70.1159
2023-05-04T00:44:01.760Z,70.2160
2023-05-04T00:45:04.151Z,70.4131
2023-05-04T00:46:06.453Z,70.3957
2023-05-04T00:47:08.869Z,70.5199
2023-05-04T00:48:11.224Z,70.5234
2023-05-04T00:49:13.519Z,70.6868
2023-05-04T00:50:15.883Z,70.7495
2023-05-04T00:51:18.183Z,70.7645
2023-05-04T00:52:20.494Z,70.6916
2023-05-04T00:53:22.863Z,70.5403
2023-05-04T00:54:25.162Z,70.7001
2023-05-04T00:55:27.547Z,70.4955
2023-05-04T00:56:29.836Z,70.2876
2023-05-04T00:57:32.186Z,70.1855
2023-05-04T00:58:34.583Z,70.1928
2023-05-04T00:59:36.917Z,70.3454
2023-05-04T01:00:39.252Z,70.2042
2023-05-04T01:01:41.595Z,70.1303
2023-05-04T01:02:43.901Z,70.1001
2023-05-04T01:03:46.295Z,69.9419
2023-05-04T01:04:48.660Z,69.9421
2023-05-04T01:05:50.885Z,69.9615
2023-05-04T01:06:53.223Z,70.2893
2023-05-04T01:07:55.621Z,70.5752
2023-05-04T01:08:57.933Z,70.4920
2023-05-04T01:10:00.262Z,70.2424
2023-05-04T01:11:02.611Z,69.8342
2023-05-04T01:12:04.956Z,70.1382
2023-05-04T01:13:07.324Z,70.3728
2023-05-04T01:14:09.619Z,70.5026
2023-05-04T01:15:11.936Z,70.4928
2023-05-04T01:16:14.343Z,70.8407
2023-05-04T01:17:16.636Z,71.0354
2023-05-04T01:18:18.973Z,70.9986
2023-05-04T01:19:21.277Z,70.9207
2023-05-04T01:20:23.642Z,71.0441
2023-05-04T01:21:25.934Z,71.0041
2023-05-04T01:22:28.306Z,70.7570
2023-05-04T01:23:30.645Z,70.7191
2023-05-04T01:24:32.949Z,70.7142
2023-05-04T01:25:35.331Z,70.8657
2023-05-04T01:26:37.611Z,71.0065
2023-05-04T01:27:39.985Z,70.7162
2023-05-04T01:28:42.274Z,70.6652
2023-05-04T01:29:44.618Z,70.7624
2023-05-04T01:30:47.039Z,70.5554
2023-05-04T01:31:49.321Z,70.5931
2023-05-04T01:32:51.686Z,70.8165
2023-05-04T01:33:53.959Z,70.8443
2023-05-04T01:34:56.316Z,70.8366
2023-05-04T01:35:58.686Z,70.8665
2023-05-04T01:37:00.988Z,70.6014
2023-05-04T01:38:03.330Z,70.5510
2023-05-04T01:39:05.712Z,70.8148
2023-05-04T01:40:07.996Z,70.8299
2023-05-04T01:41:10.347Z,70.6854
2023-05-04T01:42:12.659Z,70.8603
2023-05-04T01:43:15.033Z,70.9355
2023-05-04T01:44:17.367Z,70.8939
2023-05-04T01:45:19.675Z,70.7582
2023-05-04T01:46:22.058Z,70.4746
2023-05-04T01:47:24.376Z,70.5300
2023-05-04T01:48:28.281Z,70.8649
2023-05-04T01:49:29.015Z,70.7572
2023-05-04T01:50:31.354Z,70.6898
2023-05-04T01:51:33.725Z,70.5646
2023-05-04T01:52:36.024Z,70.4818
2023-05-04T01:53:38.365Z,69.7774
2023-05-04T01:54:40.741Z,69.2116
2023-05-04T01:55:43.077Z,68.7102
2023-05-04T01:56:45.420Z,69.6419
2023-05-04T01:57:47.740Z,69.5885
2023-05-04T01:58:50.049Z,69.8321
2023-05-04T01:59:52.419Z,70.2754
2023-05-04T02:00:54.725Z,70.8126
2023-05-04T02:01:57.119Z,69.8840
2023-05-04T02:02:59.550Z,69.2190
2023-05-04T02:04:01.960Z,68.4411
2023-05-04T02:05:04.102Z,67.7111
2023-05-04T02:06:06.412Z,68.0028
2023-05-04T02:07:08.763Z,68.9428
2023-05-04T02:08:11.073Z,69.0875
2023-05-04T02:09:13.412Z,69.0566
2023-05-04T02:10:15.780Z,68.3730
2023-05-04T02:11:18.124Z,67.6737
2023-05-04T02:12:20.424Z,68.2042
2023-05-04T02:13:22.748Z,67.5082
2023-05-04T02:14:25.137Z,67.3303
2023-05-04T02:15:27.465Z,68.0615
2023-05-04T02:16:29.823Z,69.1826
2023-05-04T02:17:32.160Z,69.7714
2023-05-04T02:18:34.425Z,70.0897
2023-05-04T02:19:36.770Z,70.1428
2023-05-04T02:20:39.089Z,70.5134
2023-05-04T02:21:41.446Z,70.4192
2023-05-04T02:22:43.807Z,70.1062
2023-05-04T02:23:46.149Z,70.4368
2023-05-04T02:24:48.498Z,70.6620
2023-05-04T02:25:50.887Z,70.7705
2023-05-04T02:26:53.155Z,70.6149
2023-05-04T02:27:55.454Z,70.5026
2023-05-04T02:28:57.830Z,70.7458
2023-05-04T02:30:00.203Z,70.6794
2023-05-04T02:31:02.447Z,70.5464
2023-05-04T02:32:04.867Z,70.1928
2023-05-04T02:33:07.188Z,70.3575
2023-05-04T02:34:09.499Z,70.7552
2023-05-04T02:35:11.839Z,70.9510
2023-05-04T02:36:14.192Z,71.1825
2023-05-04T02:37:16.506Z,71.1500
2023-05-04T02:38:18.810Z,71.1470
2023-05-04T02:39:21.150Z,71.1736
2023-05-04T02:40:23.545Z,71.4048
2023-05-04T02:41:25.876Z,71.4898
2023-05-04T02:42:28.244Z,71.3053
2023-05-04T02:43:30.506Z,71.3090
2023-05-04T02:44:32.876Z,71.2095
2023-05-04T02:45:35.209Z,70.9626
2023-05-04T02:46:37.527Z,70.8448
2023-05-04T02:47:39.901Z,70.5260
2023-05-04T02:48:42.194Z,70.4492
2023-05-04T02:49:44.552Z,70.6174
2023-05-04T02:50:46.901Z,70.6915
2023-05-04T02:51:49.225Z,70.5116
2023-05-04T02:52:51.594Z,70.5220
2023-05-04T02:53:53.938Z,70.2337
2023-05-04T02:54:56.235Z,70.3745
2023-05-04T02:55:58.575Z,70.5469
2023-05-04T02:57:01.061Z,70.8297
2023-05-04T02:58:03.291Z,70.6439
2023-05-04T02:59:05.628Z,70.5784
2023-05-04T03:00:08.009Z,70.8059
2023-05-04T03:01:10.314Z,70.8852
2023-05-04T03:02:12.629Z,71.0844
2023-05-04T03:03:14.972Z,70.8297
2023-05-04T03:04:17.342Z,70.5282
2023-05-04T03:05:19.604Z,70.5984
2023-05-04T03:06:21.977Z,70.7226
2023-05-04T03:07:24.342Z,70.5255
2023-05-04T03:08:26.702Z,70.4386
2023-05-04T03:09:28.958Z,70.6765
2023-05-04T03:10:31.310Z,70.9082
2023-05-04T03:11:33.649Z,71.0076
2023-05-04T03:12:36.084Z,70.9723
2023-05-04T03:13:38.362Z,70.9416
2023-05-04T03:14:40.656Z,71.0313
2023-05-04T03:15:43.028Z,70.8621
2023-05-04T03:16:45.442Z,70.8813
2023-05-04T03:17:47.711Z,71.0319
2023-05-04T03:18:50.291Z,70.8766
2023-05-04T03:19:52.352Z,70.8885
2023-05-04T03:20:54.716Z,70.9120
2023-05-04T03:21:57.058Z,71.0795
2023-05-04T03:22:59.371Z,71.4089
2023-05-04T03:24:01.701Z,71.2581
2023-05-04T03:25:04.110Z,71.3790
2023-05-04T03:26:06.408Z,71.4797
2023-05-04T03:27:08.745Z,71.3583
2023-05-04T03:28:11.057Z,71.4569
2023-05-04T03:29:13.402Z,71.1792
2023-05-04T03:30:15.731Z,71.3374
2023-05-04T03:31:18.091Z,71.5789
2023-05-04T03:32:20.390Z,71.9178
2023-05-04T03:33:22.777Z,71.5237
2023-05-04T03:34:25.085Z,71.6008
2023-05-04T03:35:27.450Z,71.6203
2023-05-04T03:36:29.772Z,71.6203
2023-05-04T03:37:32.122Z,71.2546
2023-05-04T03:38:34.454Z,71.2432
2023-05-04T03:39:36.798Z,71.2925
2023-05-04T03:40:39.128Z,71.0751
2023-05-04T03:41:41.421Z,70.9713
2023-05-04T03:42:43.806Z,71.3308
2023-05-04T03:43:46.102Z,71.4108
2023-05-04T03:44:48.466Z,71.3809
2023-05-04T03:45:50.831Z,71.1813
2023-05-04T03:46:53.147Z,71.1429
2023-05-04T03:47:55.459Z,71.2441
2023-05-04T03:48:57.790Z,71.2393
2023-05-04T03:50:00.176Z,71.3242
2023-05-04T03:51:02.490Z,71.4339
2023-05-04T03:52:04.834Z,70.9253
2023-05-04T03:53:07.148Z,70.9783
2023-05-04T03:54:09.493Z,71.1893
2023-05-04T03:55:11.805Z,71.2312
2023-05-04T03:56:14.146Z,71.2272
2023-05-04T03:57:16.495Z,71.3211
2023-05-04T03:58:18.831Z,71.0435
2023-05-04T03:59:21.172Z,70.9091
2023-05-04T04:00:23.503Z,70.9038
2023-05-04T04:01:25.842Z,71.0500
2023-05-04T04:02:28.222Z,71.0591
2023-05-04T04:03:30.648Z,70.9326
2023-05-04T04:04:32.865Z,70.8965
2023-05-04T04:05:35.155Z,71.1497
2023-05-04T04:06:37.541Z,71.2764
2023-05-04T04:07:39.830Z,71.1725
2023-05-04T04:08:42.257Z,71.4881
2023-05-04T04:09:44.559Z,71.5622
2023-05-04T04:10:46.903Z,71.4100
2023-05-04T04:11:49.271Z,71.4218
2023-05-04T04:12:51.616Z,71.4107
2023-05-04T04:13:53.941Z,71.3534
2023-05-04T04:14:56.259Z,71.5921
2023-05-04T04:15:58.640Z,71.4770
2023-05-04T04:17:00.927Z,71.3087
2023-05-04T04:18:03.345Z,71.6212
2023-05-04T04:19:05.602Z,71.4570
2023-05-04T04:20:08.118Z,71.1149
2023-05-04T04:21:10.249Z,71.2574
2023-05-04T04:22:12.632Z,71.5238
2023-05-04T04:23:14.928Z,71.7509
2023-05-04T04:24:17.294Z,71.9401
2023-05-04T04:25:19.637Z,71.8534
2023-05-04T04:26:21.940Z,71.7028
2023-05-04T04:27:24.305Z,71.6670
2023-05-04T04:28:26.661Z,71.4550
2023-05-04T04:29:28.937Z,71.7573
2023-05-04T04:30:31.309Z,71.9099
2023-05-04T04:31:33.654Z,72.0632
2023-05-04T04:32:36.051Z,72.1767
2023-05-04T04:33:38.284Z,72.3218
2023-05-04T04:34:40.617Z,72.4098
2023-05-04T04:35:42.954Z,72.4849
2023-05-04T04:36:45.289Z,72.0826
2023-05-04T04:37:47.671Z,71.8272
2023-05-04T04:38:49.973Z,72.2175
2023-05-04T04:39:52.305Z,72.4180
2023-05-04T04:40:54.673Z,72.6665
2023-05-04T04:41:56.973Z,73.0330
2023-05-04T04:42:59.341Z,72.7951
2023-05-04T04:44:01.688Z,72.5802
2023-05-04T04:45:03.961Z,72.6487
2023-05-04T04:46:06.407Z,72.7161
2023-05-04T04:47:08.665Z,72.6703
2023-05-04T04:48:11.162Z,72.1097
2023-05-04T04:49:13.334Z,71.8550
2023-05-04T04:50:15.609Z,72.2012
2023-05-04T04:51:17.986Z,72.1932
2023-05-04T04:52:20.283Z,71.8542
2023-05-04T04:53:22.642Z,71.2588
2023-05-04T04:54:24.986Z,70.2123
2023-05-04T04:55:27.324Z,70.3199
2023-05-04T04:56:29.648Z,70.4611
2023-05-04T04:57:32.046Z,69.9544
2023-05-04T04:58:34.323Z,69.4654
2023-05-04T04:59:36.650Z,69.1744
2023-05-04T05:00:39.025Z,69.8850
2023-05-04T05:01:41.314Z,70.3354
2023-05-04T05:02:43.682Z,70.1151
2023-05-04T05:03:45.990Z,70.4524
2023-05-04T05:04:48.366Z,70.9547
2023-05-04T05:05:50.636Z,71.0322
2023-05-04T05:06:52.966Z,70.9773
2023-05-04T05:07:55.259Z,70.8196
2023-05-04T05:08:57.626Z,70.1209
2023-05-04T05:09:59.942Z,70.2705
2023-05-04T05:11:02.299Z,70.0696
2023-05-04T05:12:04.655Z,71.3312
2023-05-04T05:13:07.029Z,71.5988
2023-05-04T05:14:09.283Z,71.6918
2023-05-04T05:15:11.628Z,72.0477
2023-05-04T05:16:13.984Z,72.1281
2023-05-04T05:17:16.418Z,72.4254
2023-05-04T05:18:18.637Z,72.6486
2023-05-04T05:19:20.935Z,72.8162
2023-05-04T05:20:23.329Z,73.0093
2023-05-04T05:21:25.579Z,73.1350
2023-05-04T05:22:27.963Z,73.2889
2023-05-04T05:23:30.253Z,73.3508
2023-05-04T05:24:32.592Z,73.3468
2023-05-04T05:25:34.921Z,73.5345
2023-05-04T05:26:37.307Z,73.6645
2023-05-04T05:27:39.636Z,73.6734
2023-05-04T05:28:41.928Z,73.7342
2023-05-04T05:29:44.261Z,74.5663
2023-05-04T05:30:46.608Z,74.0603
2023-05-04T05:31:48.966Z,73.6514
2023-05-04T05:32:51.315Z,73.6497
2023-05-04T05:33:53.601Z,73.7502
2023-05-04T05:34:55.916Z,73.6133
2023-05-04T05:35:58.299Z,73.6563
2023-05-04T05:37:00.603Z,74.1193
2023-05-04T05:38:02.933Z,74.1533
2023-05-04T05:39:05.300Z,74.3798
2023-05-04T05:40:07.835Z,73.6633
2023-05-04T05:41:10.052Z,73.1091
2023-05-04T05:42:12.259Z,73.1944
2023-05-04T05:43:14.636Z,72.7412
2023-05-04T05:44:16.928Z,72.8075
2023-05-04T05:45:19.276Z,72.9760
2023-05-04T05:46:21.629Z,72.8361
2023-05-04T05:47:23.952Z,72.3480
2023-05-04T05:48:26.251Z,73.0250
2023-05-04T05:49:28.596Z,73.9095
2023-05-04T05:50:30.935Z,73.1686
2023-05-04T05:51:33.287Z,73.2573
2023-05-04T05:52:35.622Z,73.0512
2023-05-04T05:53:37.959Z,71.9569
2023-05-04T05:54:40.265Z,71.3969
2023-05-04T05:55:42.582Z,71.4198
2023-05-04T05:56:44.950Z,71.9954
2023-05-04T05:57:47.273Z,72.1898
2023-05-04T05:58:49.592Z,72.8280
2023-05-04T05:59:51.941Z,72.3622
2023-05-04T06:00:54.301Z,71.8473
2023-05-04T06:01:56.633Z,71.5520
2023-05-04T06:02:59.017Z,71.8660
2023-05-04T06:04:01.459Z,71.3727
2023-05-04T06:05:03.842Z,71.5562
2023-05-04T06:06:05.992Z,72.2299
2023-05-04T06:07:08.290Z,72.3103
2023-05-04T06:08:10.606Z,72.3262
2023-05-04T06:09:12.954Z,71.4567
2023-05-04T06:10:15.296Z,70.8812
2023-05-04T06:11:17.653Z,70.8572
2023-05-04T06:12:19.969Z,71.7331
2023-05-04T06:13:22.274Z,72.7295
2023-05-04T06:14:24.622Z,73.3764
2023-05-04T06:15:26.967Z,72.5206
2023-05-04T06:16:29.394Z,71.9937
2023-05-04T06:17:31.775Z,71.7857
2023-05-04T06:18:33.970Z,71.5057
2023-05-04T06:19:36.320Z,71.9072
2023-05-04T06:20:38.661Z,71.1699
2023-05-04T06:21:40.980Z,70.7727
2023-05-04T06:22:43.302Z,69.8679
2023-05-04T06:23:45.633Z,68.5501
2023-05-04T06:24:47.998Z,68.4836
2023-05-04T06:25:50.346Z,68.4334
2023-05-04T06:26:52.645Z,68.3379
2023-05-04T06:27:54.992Z,68.4757
2023-05-04T06:28:57.370Z,67.8564
2023-05-04T06:29:59.651Z,67.5392
2023-05-04T06:31:02.001Z,67.3255
2023-05-04T06:32:04.381Z,66.8320
2023-05-04T06:33:06.721Z,66.6255
2023-05-04T06:34:09.043Z,66.7730
2023-05-04T06:35:11.370Z,67.0908
2023-05-04T06:36:13.694Z,67.6929
2023-05-04T06:37:16.201Z,68.7451
2023-05-04T06:38:18.410Z,68.8660
2023-05-04T06:39:20.665Z,69.0963
2023-05-04T06:40:23.050Z,69.0824
2023-05-04T06:41:25.358Z,67.7213
2023-05-04T06:42:27.659Z,66.9884
2023-05-04T06:43:30.045Z,67.7806
2023-05-04T06:44:32.332Z,68.3199
2023-05-04T06:45:34.688Z,68.7856
2023-05-04T06:46:36.970Z,67.8543
2023-05-04T06:47:39.384Z,67.3073
2023-05-04T06:48:41.672Z,68.3682
2023-05-04T06:49:43.991Z,69.6067
2023-05-04T06:50:46.336Z,69.4816
2023-05-04T06:51:48.671Z,68.6379
2023-05-04T06:52:50.987Z,67.9736
2023-05-04T06:53:53.334Z,67.1861
2023-05-04T06:54:55.666Z,66.0498
2023-05-04T06:55:57.999Z,65.6850
2023-05-04T06:57:00.345Z,66.2243
2023-05-04T06:58:02.733Z,67.3926
2023-05-04T06:59:04.999Z,68.9698
2023-05-04T07:00:07.517Z,69.9118
2023-05-04T07:01:09.719Z,69.2476
2023-05-04T07:02:12.038Z,68.0212
2023-05-04T07:03:14.371Z,66.6666
2023-05-04T07:04:16.659Z,66.5189
2023-05-04T07:05:19.014Z,67.7429
2023-05-04T07:06:21.359Z,67.7514
2023-05-04T07:07:23.688Z,67.2417
2023-05-04T07:08:26.074Z,67.6483
2023-05-04T07:09:28.381Z,67.6379
2023-05-04T07:10:30.695Z,68.4414
2023-05-04T07:11:33.038Z,68.4562
2023-05-04T07:12:35.374Z,68.2703
2023-05-04T07:13:37.748Z,68.3793
2023-05-04T07:14:40.064Z,67.2307
2023-05-04T07:15:42.423Z,66.8854
2023-05-04T07:16:44.794Z,66.6971
2023-05-04T07:17:47.129Z,66.5391
2023-05-04T07:18:49.483Z,66.2362
2023-05-04T07:19:51.741Z,66.1944
2023-05-04T07:21:01.554Z,65.3938
2023-05-04T07:21:56.481Z,64.7331
2023-05-04T07:22:58.725Z,66.4105
2023-05-04T07:24:01.137Z,66.8246
2023-05-04T07:25:03.428Z,66.1214
2023-05-04T07:26:05.768Z,66.1599
2023-05-04T07:27:08.146Z,65.6580
2023-05-04T07:28:10.478Z,66.3094
2023-05-04T07:29:12.841Z,66.7139
2023-05-04T07:30:15.156Z,65.7782
2023-05-04T07:31:17.442Z,64.9071
2023-05-04T07:32:19.944Z,64.3167
2023-05-04T07:33:22.186Z,63.8980
2023-05-04T07:34:30.927Z,64.5098
2023-05-04T07:35:26.797Z,64.7428
2023-05-04T07:36:29.190Z,63.9189
2023-05-04T07:37:31.531Z,63.3470
2023-05-04T07:38:33.810Z,63.5692
2023-05-04T07:39:36.167Z,62.8365
2023-05-04T07:40:38.549Z,62.4616
2023-05-04T07:41:40.824Z,63.5306
2023-05-04T07:42:43.232Z,62.9226
2023-05-04T07:43:45.501Z,62.6143
2023-05-04T07:44:47.903Z,62.6831
2023-05-04T07:45:50.232Z,63.0593
2023-05-04T07:46:52.549Z,63.4432
2023-05-04T07:47:54.951Z,62.4340
2023-05-04T07:48:57.250Z,62.5926
2023-05-04T07:49:59.602Z,62.0427
2023-05-04T07:51:01.930Z,62.1587
2023-05-04T07:52:04.238Z,62.3725
2023-05-04T07:53:06.614Z,61.8482
2023-05-04T07:54:08.905Z,60.4437
2023-05-04T07:55:11.280Z,60.1660
2023-05-04T07:56:13.604Z,61.0063
2023-05-04T07:57:15.929Z,59.9073
2023-05-04T07:58:18.286Z,59.7328
2023-05-04T07:59:20.617Z,60.1250
2023-05-04T08:00:22.927Z,59.6470
2023-05-04T08:01:25.291Z,58.6130
2023-05-04T08:02:27.701Z,57.3304
2023-05-04T08:03:30.007Z,57.1269
2023-05-04T08:04:32.289Z,57.0771
2023-05-04T08:05:34.633Z,58.3270
2023-05-04T08:06:36.962Z,58.2779
2023-05-04T08:07:39.312Z,58.0868
2023-05-04T08:08:41.698Z,56.8035
2023-05-04T08:09:43.993Z,56.7307
2023-05-04T08:10:46.361Z,56.7775
2023-05-04T08:11:48.719Z,56.4885
2023-05-04T08:12:51.048Z,56.1340
2023-05-04T08:13:53.438Z,55.9586
2023-05-04T08:14:55.755Z,55.0745
2023-05-04T08:15:58.101Z,54.5067
2023-05-04T08:17:00.430Z,54.6353
2023-05-04T08:18:02.882Z,54.1804
2023-05-04T08:19:05.144Z,54.3452
2023-05-04T08:20:07.508Z,54.8077
2023-05-04T08:21:09.846Z,54.1979
2023-05-04T08:22:12.157Z,53.9811
2023-05-04T08:23:14.479Z,53.9922
2023-05-04T08:24:16.842Z,54.1733
2023-05-04T08:25:19.162Z,53.3771
2023-05-04T08:26:21.510Z,53.6356
2023-05-04T08:27:23.871Z,53.2994
2023-05-04T08:28:26.205Z,52.9697
2023-05-04T08:29:28.556Z,53.1649
2023-05-04T08:30:30.894Z,53.5480
2023-05-04T08:31:33.249Z,53.7214
2023-05-04T08:32:35.588Z,53.1749
2023-05-04T08:33:37.937Z,53.0208
2023-05-04T08:34:40.287Z,52.7691
2023-05-04T08:35:42.611Z,52.2604
2023-05-04T08:36:44.962Z,51.7017
2023-05-04T08:37:47.310Z,50.6888
2023-05-04T08:38:49.640Z,50.6108
2023-05-04T08:39:52.052Z,50.5830
2023-05-04T08:40:54.365Z,50.7470
2023-05-04T08:41:56.664Z,50.7669
2023-05-04T08:42:59.014Z,49.9088
2023-05-04T08:44:01.358Z,50.0681
2023-05-04T08:45:03.899Z,50.2229
2023-05-04T08:46:06.122Z,50.2772
2023-05-04T08:47:08.398Z,50.6354
2023-05-04T08:48:10.742Z,50.9622
2023-05-04T08:49:13.095Z,50.1441
2023-05-04T08:50:15.452Z,49.4448
2023-05-04T08:51:17.806Z,49.4724
2023-05-04T08:52:20.118Z,49.4044
2023-05-04T08:53:22.465Z,49.0856
2023-05-04T08:54:24.854Z,48.9618
2023-05-04T08:55:27.191Z,48.7793
2023-05-04T08:56:29.505Z,50.0405
2023-05-04T08:57:31.853Z,49.7857
2023-05-04T08:58:34.238Z,50.1583
2023-05-04T08:59:36.547Z,50.1984
2023-05-04T09:00:38.937Z,50.2482
2023-05-04T09:01:41.268Z,49.6029
2023-05-04T09:02:43.642Z,49.9454
2023-05-04T09:03:46.090Z,49.9898
2023-05-04T09:04:48.305Z,49.4176
2023-05-04T09:05:50.601Z,49.3889
2023-05-04T09:06:52.951Z,48.9902
2023-05-04T09:07:55.303Z,48.2612
2023-05-04T09:08:57.703Z,48.0238
2023-05-04T09:10:00.042Z,48.7089
2023-05-04T09:11:02.377Z,48.5246
2023-05-04T09:12:04.707Z,48.7072
2023-05-04T09:13:07.090Z,49.1858
2023-05-04T09:14:09.419Z,49.4064
2023-05-04T09:15:11.759Z,49.6658
2023-05-04T09:16:14.909Z,48.7771
2023-05-04T09:17:16.430Z,48.4828
2023-05-04T09:18:18.857Z,48.4274
2023-05-04T09:19:21.128Z,48.3099
2023-05-04T09:20:23.484Z,48.2193
2023-05-04T09:21:25.873Z,48.0613
2023-05-04T09:22:28.801Z,47.9320
2023-05-04T09:23:30.571Z,48.8694
2023-05-04T09:24:32.895Z,47.8598
2023-05-04T09:25:35.226Z,47.3609
2023-05-04T09:26:37.586Z,47.7633
2023-05-04T09:27:39.919Z,48.1186
2023-05-04T09:28:42.263Z,47.5096
2023-05-04T09:29:44.629Z,47.1386
2023-05-04T09:30:47.061Z,47.0709
2023-05-04T09:31:49.306Z,47.7165
2023-05-04T09:32:51.674Z,48.5078
2023-05-04T09:33:54.007Z,47.6545
2023-05-04T09:34:56.354Z,47.2194
2023-05-04T09:35:58.721Z,47.0176
2023-05-04T09:37:01.054Z,46.8593
2023-05-04T09:38:03.407Z,47.1889
2023-05-04T09:39:05.764Z,46.8594
2023-05-04T09:40:08.117Z,47.2922
2023-05-04T09:41:10.473Z,47.5600
2023-05-04T09:42:12.809Z,47.3661
2023-05-04T09:43:15.151Z,47.7769
2023-05-04T09:44:17.501Z,47.4811
2023-05-04T09:45:19.862Z,47.1620
2023-05-04T09:46:22.225Z,47.1953
2023-05-04T09:47:24.579Z,46.3354
2023-05-04T09:48:26.986Z,45.5750
2023-05-04T09:49:29.242Z,45.7583
2023-05-04T09:50:31.601Z,46.0970
2023-05-04T09:51:33.956Z,46.2604
2023-05-04T09:52:36.291Z,45.6598
2023-05-04T09:53:38.636Z,45.3967
2023-05-04T09:54:40.992Z,45.2695
2023-05-04T09:55:43.337Z,44.8916
2023-05-04T09:56:45.727Z,45.2576
2023-05-04T09:57:48.150Z,45.8616
2023-05-04T09:58:50.399Z,44.9854
2023-05-04T09:59:52.739Z,44.4805
2023-05-04T10:00:55.092Z,45.1773
2023-05-04T10:02:00.398Z,45.3597
2023-05-04T10:02:59.813Z,44.8936
2023-05-04T10:04:02.158Z,45.1137
2023-05-04T10:05:04.702Z,45.5262
2023-05-04T10:06:06.846Z,46.2524
2023-05-04T10:07:09.226Z,45.7807
2023-05-04T10:08:11.549Z,45.6903
2023-05-04T10:09:13.914Z,45.7120
2023-05-04T10:10:16.265Z,45.8017
2023-05-04T10:11:18.632Z,44.8819
2023-05-04T10:12:21.003Z,44.6667
2023-05-04T10:13:23.333Z,45.6396
2023-05-04T10:14:25.682Z,45.9463
2023-05-04T10:15:28.041Z,46.7117
2023-05-04T10:16:30.494Z,46.5434
2023-05-04T10:17:32.778Z,45.0367
2023-05-04T10:18:35.092Z,45.3249
2023-05-04T10:19:37.461Z,44.7563
2023-05-04T10:20:39.804Z,44.3919
2023-05-04T10:21:42.169Z,44.7699
2023-05-04T10:22:44.543Z,44.5388
2023-05-04T10:23:46.876Z,44.5202
2023-05-04T10:24:49.234Z,44.1316
2023-05-04T10:25:51.585Z,43.5019
2023-05-04T10:26:53.945Z,43.3337
2023-05-04T10:27:56.306Z,42.7578
2023-05-04T10:28:58.661Z,44.5345
2023-05-04T10:30:01.018Z,44.5024
2023-05-04T10:31:03.377Z,44.2992
2023-05-04T10:32:05.806Z,44.1977
2023-05-04T10:33:08.190Z,45.0689
2023-05-04T10:34:10.434Z,44.4106
2023-05-04T10:35:12.819Z,44.4613
2023-05-04T10:36:15.152Z,44.5136
2023-05-04T10:37:17.513Z,44.1189
2023-05-04T10:38:19.851Z,43.9369
2023-05-04T10:39:22.220Z,44.1493
2023-05-04T10:40:24.600Z,43.5340
2023-05-04T10:41:26.913Z,43.8140
2023-05-04T10:42:29.271Z,43.2733
2023-05-04T10:43:31.622Z,43.9688
2023-05-04T10:44:33.985Z,43.7574
2023-05-04T10:45:36.388Z,42.8470
2023-05-04T10:46:38.679Z,42.5676
2023-05-04T10:47:41.149Z,44.3134
2023-05-04T10:48:43.377Z,45.0795
2023-05-04T10:49:45.744Z,46.2223
2023-05-04T10:50:48.129Z,44.4561
2023-05-04T10:51:50.435Z,44.1481
2023-05-04T10:52:52.786Z,45.2722
2023-05-04T10:53:55.133Z,44.8266
2023-05-04T10:54:57.486Z,43.9745
2023-05-04T10:55:59.870Z,44.3689
2023-05-04T10:57:02.203Z,43.8018
2023-05-04T10:58:04.553Z,43.3435
2023-05-04T10:59:06.895Z,43.3959
2023-05-04T11:00:09.241Z,43.7903
2023-05-04T11:01:11.644Z,43.1242
2023-05-04T11:02:13.966Z,43.0698
2023-05-04T11:03:16.386Z,43.5462
2023-05-04T11:04:18.650Z,43.3555
2023-05-04T11:05:21.001Z,43.3041
2023-05-04T11:06:24.259Z,43.5665
2023-05-04T11:07:25.708Z,44.2076
2023-05-04T11:08:28.085Z,43.5184
2023-05-04T11:09:30.405Z,43.3604
2023-05-04T11:10:32.758Z,43.1459
2023-05-04T11:11:35.110Z,42.9781
2023-05-04T11:12:37.476Z,43.1159
2023-05-04T11:13:39.825Z,42.9338
2023-05-04T11:14:42.203Z,43.3068
2023-05-04T11:15:44.568Z,43.2168
2023-05-04T11:16:46.939Z,42.6042
2023-05-04T11:17:49.263Z,43.7719
2023-05-04T11:18:51.606Z,42.9722
2023-05-04T11:19:53.923Z,42.4968
2023-05-04T11:20:56.265Z,41.7403
2023-05-04T11:21:58.624Z,41.6081
2023-05-04T11:23:00.965Z,41.6894
2023-05-04T11:24:03.356Z,42.3559
2023-05-04T11:25:05.789Z,42.0678
2023-05-04T11:26:08.356Z,41.4618
2023-05-04T11:27:10.377Z,41.5157
2023-05-04T11:28:14.328Z,41.8296
2023-05-04T11:29:15.094Z,41.4097
2023-05-04T11:30:17.420Z,41.3854
2023-05-04T11:31:19.834Z,41.1323
2023-05-04T11:32:22.120Z,42.5936
2023-05-04T11:33:24.477Z,43.0588
2023-05-04T11:34:26.833Z,43.3249
2023-05-04T11:35:29.172Z,43.0686
2023-05-04T11:36:31.533Z,42.2393
2023-05-04T11:37:33.878Z,42.1368
2023-05-04T11:38:36.240Z,41.8107
2023-05-04T11:39:38.583Z,41.4544
2023-05-04T11:40:41.019Z,41.2371
2023-05-04T11:41:43.309Z,42.0539
2023-05-04T11:42:45.653Z,42.2549
2023-05-04T11:43:48.018Z,42.2629
2023-05-04T11:44:50.365Z,42.1491
2023-05-04T11:45:52.713Z,42.5009
2023-05-04T11:46:55.072Z,42.4413
2023-05-04T11:47:57.492Z,42.0694
2023-05-04T11:48:59.775Z,42.0625
2023-05-04T11:50:02.147Z,42.2485
2023-05-04T11:51:04.493Z,42.5846
2023-05-04T11:52:06.842Z,42.6045
2023-05-04T11:53:09.488Z,43.2880
2023-05-04T11:54:11.555Z,42.4244
2023-05-04T11:55:13.897Z,43.1338
2023-05-04T11:56:16.273Z,42.4637
2023-05-04T11:57:18.615Z,42.6233
2023-05-04T11:58:20.960Z,42.8677
2023-05-04T11:59:23.319Z,42.3197
2023-05-04T12:00:25.673Z,42.4508
2023-05-04T12:01:28.036Z,42.9104
2023-05-04T12:02:30.486Z,43.2785
2023-05-04T12:03:44.035Z,43.0346
2023-05-04T12:04:35.078Z,42.9097
2023-05-04T12:05:37.566Z,43.4834
2023-05-04T12:06:39.792Z,42.7371
2023-05-04T12:07:42.179Z,42.4944
2023-05-04T12:08:44.497Z,41.9769
2023-05-04T12:09:46.839Z,41.6032
2023-05-04T12:10:49.188Z,41.5752
2023-05-04T12:11:51.556Z,41.7695
2023-05-04T12:12:53.952Z,41.5012
2023-05-04T12:13:56.243Z,41.8495
2023-05-04T12:14:58.590Z,42.2668
2023-05-04T12:16:00.962Z,42.0957
2023-05-04T12:17:03.329Z,41.9901
2023-05-04T12:18:05.699Z,41.3000
2023-05-04T12:19:08.098Z,40.9092
2023-05-04T12:20:10.446Z,40.7472
2023-05-04T12:21:12.840Z,40.9272
2023-05-04T12:22:15.167Z,40.9596
2023-05-04T12:23:17.508Z,40.3574
2023-05-04T12:24:19.858Z,40.8278
2023-05-04T12:25:22.219Z,40.5394
2023-05-04T12:26:24.565Z,40.9220
2023-05-04T12:27:26.926Z,40.9674
2023-05-04T12:28:29.278Z,40.8011
2023-05-04T12:29:31.637Z,41.3295
2023-05-04T12:30:34.018Z,41.4477
2023-05-04T12:31:36.410Z,41.5671
2023-05-04T12:32:38.702Z,41.4433
2023-05-04T12:33:41.073Z,41.6545